Haramachi Maru — JBML — position and weather

sailwx.info

Track history (hours):
 
Tides and Currents Weather Stations Pressure Air Temp Water Temp Dewpoint Dewpoint Depression Visibility Wind Speed Wind Dir Waves Ship Positions

Haramachi Maru

Last reported at 2016-Jan-28 05:20 UTC. Time now 2016-Feb-06 15:37 UTC.
Position N 35°02' E 139°41'.
Warning: this ship's position is 9 days out of date.

Length 239.8 m; beam 43 m.

Type: Cargo ship. MMSI: 431106000.

Date/timePositionNaut miles runAvg speedWind from/ knotsBaromVisibWave heightAir tempDewpointWater temp
2016-Jan-28 05:20N 35°02' E 139°41'1012.4
2016-Jan-28 04:33N 35°11' E 139°46'1212.2
2016-Jan-28 03:33N 35°23' E 139°42'1313.2
2016-Jan-28 02:33N 35°32' E 139°55'1 0.8
2016-Jan-28 01:20N 35°32' E 139°56'0 0.0
2016-Jan-28 00:32N 35°32' E 139°56'0 0.0
2016-Jan-27 23:32N 35°32' E 139°56'0 0.1
2016-Jan-27 22:32N 35°32' E 139°56'0 0.0
2016-Jan-27 21:32N 35°32' E 139°56'0 0.0
2016-Jan-27 20:32N 35°32' E 139°56'0 0.0
2016-Jan-27 19:32N 35°32' E 139°56'0 0.0
2016-Jan-27 18:32N 35°32' E 139°56'0 0.0
2016-Jan-27 17:32N 35°32' E 139°56'0 0.0
2016-Jan-27 16:32N 35°32' E 139°56'0 0.0
2016-Jan-27 15:32N 35°32' E 139°56'0 0.1
2016-Jan-27 14:32N 35°32' E 139°56'0 0.1
2016-Jan-27 13:32N 35°32' E 139°56'0 0.2
2016-Jan-27 12:32N 35°32' E 139°56'0 0.1
2016-Jan-27 11:32N 35°32' E 139°56'0 0.1
2016-Jan-27 10:32N 35°32' E 139°56'0 0.0
2016-Jan-27 09:32N 35°32' E 139°56'0 0.0
2016-Jan-27 08:32N 35°32' E 139°56'0 0.0
2016-Jan-27 07:32N 35°32' E 139°56'0 0.0
2016-Jan-27 06:32N 35°32' E 139°56'0 0.0
2016-Jan-27 05:32N 35°32' E 139°56'0 0.0
2016-Jan-27 04:32N 35°32' E 139°56'0 0.0
2016-Jan-27 03:32N 35°32' E 139°56'0 0.1
2016-Jan-27 02:32N 35°32' E 139°56'0 0.2
2016-Jan-27 01:32N 35°32' E 139°56'1 1.5
2016-Jan-27 00:33N 35°31' E 139°55'1111.1
2016-Jan-26 23:33N 35°23' E 139°46'1111.3
2016-Jan-26 22:33N 35°11' E 139°47'8 8.0
2016-Jan-26 21:33N 35°04' E 139°44'8 8.1
2016-Jan-26 20:33N 34°56' E 139°42'7 6.9
2016-Jan-26 19:33N 34°49' E 139°42'1 0.8
2016-Jan-26 18:33N 34°49' E 139°43'11 9.8
2016-Jan-26 17:26N 34°49' E 139°56'1011.8
2016-Jan-26 16:33N 34°52' E 140°08'1611.7
2016-Jan-26 15:10N 35°00' E 140°25'1011.2
2016-Jan-26 14:16N 35°07' E 140°34'811.1
2016-Jan-26 13:30N 35°14' E 140°40'1010.6
2016-Jan-26 12:33N 35°22' E 140°47'  
Track history (hours):
 
Tides and Currents Weather Stations Pressure Air Temp Water Temp Dewpoint Dewpoint Depression Visibility Wind Speed Wind Dir Waves Ship Positions

Haramachi Maru

Last reported at 2016-Jan-28 05:20 UTC. Time now 2016-Feb-06 15:37 UTC.
Position N 35°02' E 139°41'.
Warning: this ship's position is 9 days out of date.

Length 239.8 m; beam 43 m.

Type: Cargo ship. MMSI: 431106000.

Date/timePositionNaut miles runAvg speedWind from/ knotsBaromVisibWave heightAir tempDewpointWater temp
2016-Jan-28 05:20N 35°02' E 139°41'1012.4
2016-Jan-28 04:33N 35°11' E 139°46'1212.2
2016-Jan-28 03:33N 35°23' E 139°42'1313.2
2016-Jan-28 02:33N 35°32' E 139°55'1 0.8
2016-Jan-28 01:20N 35°32' E 139°56'0 0.0
2016-Jan-28 00:32N 35°32' E 139°56'0 0.0
2016-Jan-27 23:32N 35°32' E 139°56'0 0.1
2016-Jan-27 22:32N 35°32' E 139°56'0 0.0
2016-Jan-27 21:32N 35°32' E 139°56'0 0.0
2016-Jan-27 20:32N 35°32' E 139°56'0 0.0
2016-Jan-27 19:32N 35°32' E 139°56'0 0.0
2016-Jan-27 18:32N 35°32' E 139°56'0 0.0
2016-Jan-27 17:32N 35°32' E 139°56'0 0.0
2016-Jan-27 16:32N 35°32' E 139°56'0 0.0
2016-Jan-27 15:32N 35°32' E 139°56'0 0.1
2016-Jan-27 14:32N 35°32' E 139°56'0 0.1
2016-Jan-27 13:32N 35°32' E 139°56'0 0.2
2016-Jan-27 12:32N 35°32' E 139°56'0 0.1
2016-Jan-27 11:32N 35°32' E 139°56'0 0.1
2016-Jan-27 10:32N 35°32' E 139°56'0 0.0
2016-Jan-27 09:32N 35°32' E 139°56'0 0.0
2016-Jan-27 08:32N 35°32' E 139°56'0 0.0
2016-Jan-27 07:32N 35°32' E 139°56'0 0.0
2016-Jan-27 06:32N 35°32' E 139°56'0 0.0
2016-Jan-27 05:32N 35°32' E 139°56'0 0.0
2016-Jan-27 04:32N 35°32' E 139°56'0 0.0
2016-Jan-27 03:32N 35°32' E 139°56'0 0.1
2016-Jan-27 02:32N 35°32' E 139°56'0 0.2
2016-Jan-27 01:32N 35°32' E 139°56'1 1.5
2016-Jan-27 00:33N 35°31' E 139°55'1111.1
2016-Jan-26 23:33N 35°23' E 139°46'1111.3
2016-Jan-26 22:33N 35°11' E 139°47'8 8.0
2016-Jan-26 21:33N 35°04' E 139°44'8 8.1
2016-Jan-26 20:33N 34°56' E 139°42'7 6.9
2016-Jan-26 19:33N 34°49' E 139°42'1 0.8
2016-Jan-26 18:33N 34°49' E 139°43'11 9.8
2016-Jan-26 17:26N 34°49' E 139°56'1011.8
2016-Jan-26 16:33N 34°52' E 140°08'1611.7
2016-Jan-26 15:10N 35°00' E 140°25'1011.2
2016-Jan-26 14:16N 35°07' E 140°34'811.1
2016-Jan-26 13:30N 35°14' E 140°40'1010.6
2016-Jan-26 12:33N 35°22' E 140°47'  

Dump ship's entire track history